createdAt,value
2022-09-14T00:02:14.449Z,97101.16
2022-09-14T00:04:40.991Z,97108.72
2022-09-14T00:07:07.360Z,97105.50
2022-09-14T00:09:33.910Z,97104.97
2022-09-14T00:12:00.183Z,97100.97
2022-09-14T00:14:26.648Z,97102.34
2022-09-14T00:16:53.977Z,97100.75
2022-09-14T00:19:20.394Z,97087.91
2022-09-14T00:21:46.757Z,97087.91
2022-09-14T00:27:04.308Z,97067.31
2022-09-14T00:29:30.881Z,97077.53
2022-09-14T00:31:57.413Z,97071.94
2022-09-14T00:34:23.976Z,97064.47
2022-09-14T00:36:50.283Z,97068.50
2022-09-14T00:39:16.708Z,97064.47
2022-09-14T00:41:43.500Z,97057.00
2022-09-14T00:44:09.938Z,97063.47
2022-09-14T00:46:36.229Z,97062.41
2022-09-14T00:49:02.739Z,97065.66
2022-09-14T00:51:29.137Z,97057.13
2022-09-14T00:53:56.908Z,97054.19
2022-09-14T00:56:23.567Z,97056.34
2022-09-14T00:58:50.242Z,97053.16
2022-09-14T01:01:17.294Z,97057.47
2022-09-14T01:03:43.870Z,97054.25
2022-09-14T01:06:10.209Z,97050.25
2022-09-14T01:08:36.633Z,97050.81
2022-09-14T01:11:03.123Z,97038.78
2022-09-14T01:13:29.962Z,97042.81
2022-09-14T01:15:56.807Z,97050.34
2022-09-14T01:18:23.149Z,97042.06
2022-09-14T01:20:49.834Z,97036.19
2022-09-14T01:23:16.897Z,97037.56
2022-09-14T01:25:43.686Z,97033.53
2022-09-14T01:28:10.080Z,97034.09
2022-09-14T01:30:36.495Z,97022.88
2022-09-14T01:33:02.841Z,97029.56
2022-09-14T01:35:30.236Z,97023.69
2022-09-14T01:37:58.498Z,97025.06
2022-09-14T01:40:26.799Z,97005.03
2022-09-14T01:42:53.978Z,97024.25
2022-09-14T01:45:20.473Z,97023.47
2022-09-14T01:47:48.277Z,97016.00
2022-09-14T01:50:14.591Z,97020.81
2022-09-14T01:52:40.854Z,97011.47
2022-09-14T01:57:52.572Z,97011.00
2022-09-14T02:00:22.844Z,97008.59
2022-09-14T02:02:49.131Z,97003.00
2022-09-14T02:05:15.961Z,97006.75
2022-09-14T02:07:42.530Z,97013.47
2022-09-14T02:10:09.087Z,97012.13
2022-09-14T02:12:35.405Z,97008.16
2022-09-14T02:15:02.215Z,97005.22
2022-09-14T02:17:28.601Z,96990.78
2022-09-14T02:19:54.871Z,96984.91
2022-09-14T02:22:21.255Z,96989.75
2022-09-14T02:24:48.042Z,96992.41
2022-09-14T02:27:14.477Z,96983.84
2022-09-14T02:29:40.844Z,96979.06
2022-09-14T02:32:08.002Z,96982.00
2022-09-14T02:34:34.285Z,96978.00
2022-09-14T02:37:00.681Z,96971.06
2022-09-14T02:39:27.274Z,96976.97
2022-09-14T02:41:53.664Z,96971.09
2022-09-14T02:44:20.816Z,96965.22
2022-09-14T02:46:48.348Z,96972.72
2022-09-14T02:49:14.711Z,96965.78
2022-09-14T02:51:41.401Z,96966.06
2022-09-14T02:54:08.123Z,96969.25
2022-09-14T02:56:34.516Z,96964.19
2022-09-14T02:59:01.530Z,96958.31
2022-09-14T03:01:28.962Z,96956.72
2022-09-14T03:03:55.362Z,96956.19
2022-09-14T03:06:23.436Z,96940.72
2022-09-14T03:08:50.966Z,96940.19
2022-09-14T03:11:17.699Z,96937.81
2022-09-14T03:13:45.217Z,96946.09
2022-09-14T03:16:12.772Z,96937.84
2022-09-14T03:18:39.218Z,96940.78
2022-09-14T03:21:05.928Z,96934.38
2022-09-14T03:23:32.229Z,96939.19
2022-09-14T03:25:59.467Z,96938.66
2022-09-14T03:28:25.785Z,96934.41
2022-09-14T03:30:52.658Z,96939.22
2022-09-14T03:33:19.151Z,96944.56
2022-09-14T03:35:46.606Z,96941.38
2022-09-14T03:38:13.842Z,96939.78
2022-09-14T03:40:40.154Z,96940.06
2022-09-14T03:43:06.512Z,96939.25
2022-09-14T03:45:38.274Z,96937.91
2022-09-14T03:48:05.219Z,96937.38
2022-09-14T03:50:31.493Z,96931.78
2022-09-14T03:52:59.004Z,96931.28
2022-09-14T03:55:25.446Z,96929.13
2022-09-14T03:57:53.209Z,96925.94
2022-09-14T04:00:19.693Z,96930.78
2022-09-14T04:02:46.338Z,96929.44
2022-09-14T04:05:14.015Z,96924.38
2022-09-14T04:07:40.991Z,96923.84
2022-09-14T04:10:07.445Z,96917.19
2022-09-14T04:12:33.764Z,96910.25
2022-09-14T04:15:00.220Z,96908.09
2022-09-14T04:17:27.610Z,96911.03
2022-09-14T04:19:54.266Z,96910.50
2022-09-14T04:22:20.721Z,96907.59
2022-09-14T04:24:47.500Z,96900.91
2022-09-14T04:27:13.997Z,96913.72
2022-09-14T04:29:40.340Z,96905.22
2022-09-14T04:32:06.934Z,96915.34
2022-09-14T04:34:33.388Z,96915.63
2022-09-14T04:36:59.660Z,96910.53
2022-09-14T04:39:27.418Z,96902.03
2022-09-14T04:41:53.791Z,96906.56
2022-09-14T04:44:22.495Z,96898.81
2022-09-14T04:46:48.931Z,96907.88
2022-09-14T04:49:16.549Z,96900.97
2022-09-14T04:51:43.298Z,96905.50
2022-09-14T04:54:09.713Z,96905.75
2022-09-14T04:56:36.986Z,96906.84
2022-09-14T04:59:03.368Z,96911.66
2022-09-14T05:01:29.781Z,96914.06
2022-09-14T05:03:56.363Z,96903.13
2022-09-14T05:06:23.044Z,96899.41
2022-09-14T05:08:49.500Z,96903.94
2022-09-14T05:11:15.833Z,96902.59
2022-09-14T05:13:44.201Z,96901.81
2022-09-14T05:16:15.718Z,96909.00
2022-09-14T05:18:43.800Z,96904.75
2022-09-14T05:26:44.561Z,96911.41
2022-09-14T05:29:17.168Z,96904.47
2022-09-14T05:31:44.040Z,96911.94
2022-09-14T05:34:10.623Z,96925.31
2022-09-14T05:36:37.831Z,96919.44
2022-09-14T05:39:04.498Z,96915.97
2022-09-14T05:41:31.674Z,96911.69
2022-09-14T05:43:57.992Z,96915.72
2022-09-14T05:46:24.755Z,96907.72
2022-09-14T05:48:53.869Z,96908.00
2022-09-14T05:51:20.146Z,96912.78
2022-09-14T05:53:46.655Z,96914.91
2022-09-14T05:56:13.137Z,96925.59
2022-09-14T05:58:40.423Z,96913.56
2022-09-14T06:01:06.709Z,96911.19
2022-09-14T06:03:33.037Z,96909.88
2022-09-14T06:06:02.369Z,96917.34
2022-09-14T06:08:28.848Z,96911.19
2022-09-14T06:10:55.675Z,96913.03
2022-09-14T06:13:22.574Z,96923.72
2022-09-14T06:15:49.322Z,96919.16
2022-09-14T06:23:52.392Z,96939.06
2022-09-14T06:26:19.128Z,96931.03
2022-09-14T06:28:45.617Z,96928.63
2022-09-14T06:31:13.175Z,96916.53
2022-09-14T06:33:39.449Z,96916.75
2022-09-14T06:36:05.844Z,96918.63
2022-09-14T06:38:32.799Z,96921.28
2022-09-14T06:41:00.339Z,96930.06
2022-09-14T06:43:29.832Z,96930.31
2022-09-14T06:45:56.082Z,96920.66
2022-09-14T06:48:22.746Z,96917.16
2022-09-14T06:50:49.237Z,96923.56
2022-09-14T06:53:15.539Z,96906.97
2022-09-14T06:55:41.829Z,96907.19
2022-09-14T06:58:08.104Z,96918.13
2022-09-14T07:00:34.504Z,96914.38
2022-09-14T07:03:02.129Z,96920.78
2022-09-14T07:05:28.450Z,96917.00
2022-09-14T07:07:54.853Z,96917.25
2022-09-14T07:10:21.054Z,96918.88
2022-09-14T07:12:47.744Z,96928.22
2022-09-14T07:15:14.015Z,96935.97
2022-09-14T07:17:40.341Z,96938.41
2022-09-14T07:20:08.106Z,96935.44
2022-09-14T07:22:35.667Z,96922.59
2022-09-14T07:25:03.031Z,96912.38
2022-09-14T07:27:30.375Z,96906.75
2022-09-14T07:29:57.706Z,96917.97
2022-09-14T07:32:24.038Z,96910.75
2022-09-14T07:34:50.696Z,96915.81
2022-09-14T07:37:17.502Z,96922.50
2022-09-14T07:39:44.135Z,96923.03
2022-09-14T07:42:10.565Z,96920.06
2022-09-14T07:44:37.614Z,96918.97
2022-09-14T07:47:05.682Z,96921.38
2022-09-14T07:49:31.939Z,96919.22
2022-09-14T07:51:58.795Z,96921.59
2022-09-14T07:54:25.028Z,96916.78
2022-09-14T07:56:51.604Z,96914.34
2022-09-14T08:02:07.370Z,96910.03
2022-09-14T08:04:34.038Z,96905.50
2022-09-14T08:07:01.402Z,96895.28
2022-09-14T08:09:27.732Z,96894.50
2022-09-14T08:11:54.690Z,96903.06
2022-09-14T08:14:21.038Z,96903.06
2022-09-14T08:16:47.448Z,96906.50
2022-09-14T08:19:17.590Z,96910.78
2022-09-14T08:21:46.808Z,96901.16
2022-09-14T08:24:14.620Z,96897.41
2022-09-14T08:26:42.182Z,96894.44
2022-09-14T08:29:09.386Z,96900.56
2022-09-14T08:31:35.773Z,96900.31
2022-09-14T08:34:02.057Z,96897.34
2022-09-14T08:36:28.360Z,96903.22
2022-09-14T08:38:55.293Z,96904.81
2022-09-14T08:41:21.563Z,96899.97
2022-09-14T08:43:47.962Z,96891.38
2022-09-14T08:46:14.354Z,96894.56
2022-09-14T08:48:40.699Z,96894.28
2022-09-14T08:51:07.282Z,96893.22
2022-09-14T08:53:34.218Z,96884.91
2022-09-14T08:56:00.522Z,96882.75
2022-09-14T08:58:27.303Z,96886.44
2022-09-14T09:00:54.073Z,96877.06
2022-09-14T09:03:20.386Z,96878.63
2022-09-14T09:05:46.646Z,96875.97
2022-09-14T09:08:12.967Z,96878.63
2022-09-14T09:10:39.231Z,96875.19
2022-09-14T09:13:05.530Z,96879.44
2022-09-14T09:15:31.912Z,96881.03
2022-09-14T09:17:58.192Z,96872.69
2022-09-14T09:20:24.510Z,96875.91
2022-09-14T09:22:50.788Z,96878.28
2022-09-14T09:25:18.657Z,96878.03
2022-09-14T09:27:44.933Z,96876.94
2022-09-14T09:30:11.885Z,96871.56
2022-09-14T09:32:40.167Z,96871.56
2022-09-14T09:35:07.609Z,96873.16
2022-09-14T09:37:33.993Z,96867.28
2022-09-14T09:40:01.173Z,96863.22
2022-09-14T09:42:27.453Z,96867.22
2022-09-14T09:44:57.997Z,96856.53
2022-09-14T09:47:27.570Z,96853.53
2022-09-14T09:49:54.037Z,96849.50
2022-09-14T09:52:20.355Z,96861.53
2022-09-14T09:54:46.849Z,96865.81
2022-09-14T09:57:13.726Z,96860.16
2022-09-14T09:59:40.850Z,96862.84
2022-09-14T10:02:08.029Z,96865.53
2022-09-14T10:04:35.134Z,96865.53
2022-09-14T10:07:01.454Z,96868.97
2022-09-14T10:09:27.766Z,96858.25
2022-09-14T10:11:54.723Z,96862.56
2022-09-14T10:14:21.610Z,96856.91
2022-09-14T10:16:49.350Z,96847.00
2022-09-14T10:19:17.350Z,96848.56
2022-09-14T10:21:43.743Z,96846.41
2022-09-14T10:24:10.045Z,96852.56
2022-09-14T10:26:36.392Z,96848.00
2022-09-14T10:29:03.395Z,96856.03
2022-09-14T10:31:29.820Z,96860.31
2022-09-14T10:33:56.191Z,96851.47
2022-09-14T10:36:22.450Z,96851.78
2022-09-14T10:38:49.304Z,96853.06
2022-09-14T10:41:15.612Z,96851.19
2022-09-14T10:43:42.158Z,96856.56
2022-09-14T10:46:08.833Z,96857.34
2022-09-14T10:48:35.195Z,96862.44
2022-09-14T10:51:01.845Z,96849.84
2022-09-14T10:53:28.721Z,96847.94
2022-09-14T10:55:55.868Z,96851.41
2022-09-14T10:58:24.986Z,96855.41
2022-09-14T11:00:51.229Z,96853.50
2022-09-14T11:03:18.294Z,96854.84
2022-09-14T11:05:44.593Z,96856.41
2022-09-14T11:08:11.599Z,96848.13
2022-09-14T11:10:38.221Z,96851.28
2022-09-14T11:13:04.524Z,96851.28
2022-09-14T11:15:30.850Z,96844.84
2022-09-14T11:17:57.292Z,96842.97
2022-09-14T11:20:23.618Z,96844.56
2022-09-14T11:22:50.667Z,96847.25
2022-09-14T11:25:17.096Z,96844.56
2022-09-14T11:27:44.408Z,96842.97
2022-09-14T11:30:10.783Z,96835.72
2022-09-14T11:32:37.570Z,96842.69
2022-09-14T11:35:03.877Z,96834.66
2022-09-14T11:37:30.265Z,96833.84
2022-09-14T11:39:56.682Z,96831.97
2022-09-14T11:42:23.060Z,96840.78
2022-09-14T11:44:49.390Z,96830.88
2022-09-14T11:47:15.848Z,96830.56
2022-09-14T11:49:45.478Z,96835.66
2022-09-14T11:52:12.189Z,96818.78
2022-09-14T11:54:38.566Z,96820.38
2022-09-14T11:57:04.819Z,96804.28
2022-09-14T11:59:31.504Z,96809.34
2022-09-14T12:01:57.757Z,96802.13
2022-09-14T12:04:24.010Z,96805.31
2022-09-14T12:06:50.751Z,96804.22
2022-09-14T12:09:17.115Z,96805.81
2022-09-14T12:11:43.382Z,96802.84
2022-09-14T12:14:09.815Z,96803.38
2022-09-14T12:16:36.104Z,96802.78
2022-09-14T12:19:02.601Z,96808.94
2022-09-14T12:21:29.336Z,96799.81
2022-09-14T12:23:56.161Z,96793.34
2022-09-14T12:26:22.731Z,96798.13
2022-09-14T12:28:49.159Z,96797.03
2022-09-14T12:31:15.471Z,96797.56
2022-09-14T12:33:41.977Z,96801.81
2022-09-14T12:36:08.231Z,96801.81
2022-09-14T12:38:35.500Z,96801.03
2022-09-14T12:41:01.916Z,96792.69
2022-09-14T12:43:28.159Z,96797.25
2022-09-14T12:45:54.685Z,96798.06
2022-09-14T12:48:22.065Z,96798.06
2022-09-14T12:50:48.469Z,96807.69
2022-09-14T12:53:15.334Z,96803.72
2022-09-14T12:55:41.671Z,96807.16
2022-09-14T12:58:08.381Z,96796.44
2022-09-14T13:00:37.833Z,96806.09
2022-09-14T13:03:05.948Z,96802.63
2022-09-14T13:05:33.653Z,96801.81
2022-09-14T13:07:59.872Z,96791.91
2022-09-14T13:10:27.029Z,96794.28
2022-09-14T13:12:54.253Z,96786.22
2022-09-14T13:15:20.548Z,96770.66
2022-09-14T13:17:47.319Z,96768.78
2022-09-14T13:20:13.600Z,96773.03
2022-09-14T13:22:39.923Z,96760.44
2022-09-14T13:25:06.380Z,96766.63
2022-09-14T13:27:32.661Z,96764.69
2022-09-14T13:29:59.446Z,96759.34
2022-09-14T13:32:26.107Z,96751.81
2022-09-14T13:34:52.277Z,96745.66
2022-09-14T13:37:18.609Z,96747.53
2022-09-14T13:39:44.883Z,96744.31
2022-09-14T13:42:11.209Z,96753.16
2022-09-14T13:44:37.620Z,96743.19
2022-09-14T13:47:04.864Z,96751.25
2022-09-14T13:49:31.146Z,96744.81
2022-09-14T13:51:57.510Z,96748.28
2022-09-14T13:54:23.864Z,96747.50
2022-09-14T13:56:50.229Z,96753.66
2022-09-14T13:59:18.129Z,96749.06
2022-09-14T14:01:44.615Z,96746.38
2022-09-14T14:04:11.248Z,96744.00
2022-09-14T14:06:37.709Z,96749.06
2022-09-14T14:09:04.190Z,96752.84
2022-09-14T14:11:30.490Z,96749.66
2022-09-14T14:13:57.123Z,96748.56
2022-09-14T14:16:23.906Z,96752.34
2022-09-14T14:18:50.947Z,96753.41
2022-09-14T14:21:17.247Z,96738.94
2022-09-14T14:24:02.966Z,96740.50
2022-09-14T14:26:30.346Z,96726.97
2022-09-14T14:28:56.875Z,96734.66
2022-09-14T14:31:24.705Z,96731.97
2022-09-14T14:33:51.110Z,96726.91
2022-09-14T14:36:17.564Z,96730.34
2022-09-14T14:38:43.984Z,96727.16
2022-09-14T14:41:10.797Z,96717.53
2022-09-14T14:43:37.394Z,96720.22
2022-09-14T14:46:03.933Z,96724.78
2022-09-14T14:48:31.239Z,96724.00
2022-09-14T14:50:57.504Z,96712.47
2022-09-14T14:53:24.344Z,96713.28
2022-09-14T14:55:50.702Z,96714.34
2022-09-14T14:58:18.124Z,96701.75
2022-09-14T15:00:44.834Z,96694.50
2022-09-14T15:03:11.190Z,96690.72
2022-09-14T15:05:37.595Z,96690.72
2022-09-14T15:08:04.780Z,96695.00
2022-09-14T15:10:31.205Z,96690.44
2022-09-14T15:12:57.462Z,96691.25
2022-09-14T15:15:24.569Z,96693.13
2022-09-14T15:17:50.886Z,96694.22
2022-09-14T15:20:17.223Z,96699.59
2022-09-14T15:22:43.575Z,96699.59
2022-09-14T15:25:11.017Z,96693.41
2022-09-14T15:27:37.234Z,96693.41
2022-09-14T15:30:03.538Z,96681.13
2022-09-14T15:32:29.829Z,96677.34
2022-09-14T15:34:57.310Z,96677.34
2022-09-14T15:37:29.422Z,96677.34
2022-09-14T15:39:56.568Z,96671.97
2022-09-14T15:42:22.868Z,96677.34
2022-09-14T15:44:50.113Z,96670.38
2022-09-14T15:47:17.566Z,96670.38
2022-09-14T15:49:47.058Z,96674.13
2022-09-14T15:52:13.342Z,96677.63
2022-09-14T15:54:39.660Z,96690.22
2022-09-14T15:57:07.024Z,96688.66
2022-09-14T15:59:33.622Z,96692.09
2022-09-14T16:02:00.223Z,96694.78
2022-09-14T16:04:27.804Z,96685.16
2022-09-14T16:06:54.387Z,96683.28
2022-09-14T16:09:22.082Z,96685.16
2022-09-14T16:11:48.416Z,96684.34
2022-09-14T16:14:15.049Z,96678.22
2022-09-14T16:16:41.762Z,96686.28
2022-09-14T16:19:09.601Z,96691.63
2022-09-14T16:21:36.963Z,96685.47
2022-09-14T16:24:03.220Z,96694.31
2022-09-14T16:26:29.479Z,96696.47
2022-09-14T16:28:56.521Z,96690.31
2022-09-14T16:31:22.819Z,96687.63
2022-09-14T16:33:49.501Z,96680.69
2022-09-14T16:36:16.203Z,96686.84
2022-09-14T16:38:43.244Z,96679.88
2022-09-14T16:41:10.660Z,96671.03
2022-09-14T16:43:38.093Z,96664.88
2022-09-14T16:46:04.441Z,96677.50
2022-09-14T16:48:31.194Z,96671.34
2022-09-14T16:50:57.614Z,96678.59
2022-09-14T16:53:24.489Z,96672.72
2022-09-14T16:55:50.745Z,96673.50
2022-09-14T16:58:19.911Z,96678.88
2022-09-14T17:00:46.389Z,96681.06
2022-09-14T17:03:12.738Z,96680.28
2022-09-14T17:05:41.588Z,96678.66
2022-09-14T17:08:12.014Z,96684.31
2022-09-14T17:10:38.800Z,96691.56
2022-09-14T17:13:05.382Z,96686.19
2022-09-14T17:15:31.694Z,96681.94
2022-09-14T17:17:58.251Z,96677.66
2022-09-14T17:20:25.194Z,96681.44
2022-09-14T17:22:51.510Z,96679.84
2022-09-14T17:25:17.954Z,96672.88
2022-09-14T17:27:44.263Z,96677.44
2022-09-14T17:30:10.574Z,96671.31
2022-09-14T17:32:36.926Z,96663.56
2022-09-14T17:35:03.953Z,96668.94
2022-09-14T17:37:30.208Z,96662.75
2022-09-14T17:39:56.713Z,96658.78
2022-09-14T17:42:23.051Z,96660.66
2022-09-14T17:44:50.503Z,96647.28
2022-09-14T17:47:16.982Z,96655.63
2022-09-14T17:49:43.246Z,96661.25
2022-09-14T17:52:09.536Z,96661.25
2022-09-14T17:54:36.866Z,96666.91
2022-09-14T17:57:03.257Z,96661.53
2022-09-14T17:59:29.558Z,96665.31
2022-09-14T18:01:55.866Z,96667.19
2022-09-14T18:04:22.786Z,96664.50
2022-09-14T18:06:49.617Z,96667.19
2022-09-14T18:09:16.408Z,96674.44
2022-09-14T18:11:45.131Z,96670.97
2022-09-14T18:14:11.995Z,96663.69
2022-09-14T18:16:38.413Z,96677.41
2022-09-14T18:19:04.747Z,96670.47
2022-09-14T18:21:30.993Z,96674.22
2022-09-14T18:23:58.022Z,96670.75
2022-09-14T18:26:24.294Z,96684.16
2022-09-14T18:28:51.277Z,96706.38
2022-09-14T18:31:17.951Z,96707.97
2022-09-14T18:33:44.347Z,96698.31
2022-09-14T18:36:10.706Z,96704.78
2022-09-14T18:38:37.994Z,96701.28
2022-09-14T18:41:06.036Z,96693.25
2022-09-14T18:43:32.919Z,96690.88
2022-09-14T18:45:59.308Z,96683.94
2022-09-14T18:48:27.061Z,96675.91
2022-09-14T18:50:53.543Z,96694.16
2022-09-14T18:53:21.236Z,96696.03
2022-09-14T18:55:47.645Z,96701.38
2022-09-14T18:58:14.107Z,96712.91
2022-09-14T19:00:40.443Z,96703.13
2022-09-14T19:03:06.751Z,96713.97
2022-09-14T19:05:33.279Z,96718.25
2022-09-14T19:07:59.750Z,96713.19
2022-09-14T19:10:26.190Z,96721.22
2022-09-14T19:12:52.482Z,96727.38
2022-09-14T19:15:18.851Z,96717.75
2022-09-14T19:17:45.851Z,96710.81
2022-09-14T19:20:12.282Z,96701.16
2022-09-14T19:22:38.514Z,96706.53
2022-09-14T19:25:04.858Z,96719.13
2022-09-14T19:27:31.266Z,96737.88
2022-09-14T19:29:57.943Z,96734.41
2022-09-14T19:32:24.216Z,96742.44
2022-09-14T19:34:50.510Z,96747.81
2022-09-14T19:37:17.405Z,96748.88
2022-09-14T19:39:43.778Z,96744.63
2022-09-14T19:42:10.115Z,96750.78
2022-09-14T19:44:36.427Z,96754.53
2022-09-14T19:47:02.772Z,96752.13
2022-09-14T19:49:29.079Z,96751.34
2022-09-14T19:51:55.330Z,96753.25
2022-09-14T19:54:21.582Z,96753.25
2022-09-14T19:56:48.005Z,96749.75
2022-09-14T19:59:14.343Z,96756.97
2022-09-14T20:01:43.713Z,96750.03
2022-09-14T20:04:10.223Z,96750.34
2022-09-14T20:06:36.488Z,96749.53
2022-09-14T20:09:02.965Z,96753.03
2022-09-14T20:11:29.306Z,96758.66
2022-09-14T20:13:56.007Z,96750.91
2022-09-14T20:16:22.502Z,96756.25
2022-09-14T20:18:48.807Z,96755.47
2022-09-14T20:21:15.086Z,96758.16
2022-09-14T20:23:57.928Z,96747.72
2022-09-14T20:26:28.096Z,96751.47
2022-09-14T20:28:54.436Z,96752.28
2022-09-14T20:31:20.870Z,96752.28
2022-09-14T20:33:47.224Z,96752.56
2022-09-14T20:36:13.554Z,96750.69
2022-09-14T20:38:40.011Z,96747.50
2022-09-14T20:41:06.259Z,96741.06
2022-09-14T20:43:32.634Z,96748.28
2022-09-14T20:45:58.993Z,96750.19
2022-09-14T20:48:25.779Z,96760.09
2022-09-14T20:50:52.158Z,96760.38
2022-09-14T20:53:18.482Z,96764.94
2022-09-14T20:55:45.437Z,96761.97
2022-09-14T20:58:12.030Z,96759.59
2022-09-14T21:00:38.338Z,96760.38
2022-09-14T21:03:04.842Z,96766.53
2022-09-14T21:05:31.258Z,96764.94
2022-09-14T21:07:57.634Z,96763.38
2022-09-14T21:10:28.641Z,96758.78
2022-09-14T21:12:55.859Z,96757.19
2022-09-14T21:15:22.151Z,96769.78
2022-09-14T21:17:48.617Z,96774.06
2022-09-14T21:20:15.064Z,96771.66
2022-09-14T21:22:41.352Z,96767.41
2022-09-14T21:25:07.633Z,96770.06
2022-09-14T21:27:34.061Z,96770.38
2022-09-14T21:30:00.383Z,96772.22
2022-09-14T21:32:26.644Z,96773.31
2022-09-14T21:34:52.976Z,96766.34
2022-09-14T21:37:19.267Z,96772.78
2022-09-14T21:39:48.835Z,96765.81
2022-09-14T21:42:15.264Z,96760.47
2022-09-14T21:44:41.498Z,96770.41
2022-09-14T21:47:08.233Z,96742.97
2022-09-14T21:49:34.477Z,96762.66
2022-09-14T21:52:01.146Z,96765.34
2022-09-14T21:54:27.546Z,96769.09
2022-09-14T21:56:53.802Z,96770.19
2022-09-14T21:59:20.027Z,96760.53
2022-09-14T22:01:46.451Z,96766.19
2022-09-14T22:04:12.738Z,96764.59
2022-09-14T22:06:39.021Z,96762.22
2022-09-14T22:09:05.309Z,96759.03
2022-09-14T22:11:31.791Z,96763.56
2022-09-14T22:13:58.142Z,96762.75
2022-09-14T22:16:24.436Z,96758.78
2022-09-14T22:18:50.825Z,96758.00
2022-09-14T22:21:17.171Z,96755.59
2022-09-14T22:23:44.410Z,96735.69
2022-09-14T22:26:11.104Z,96748.16
2022-09-14T22:28:37.505Z,96751.59
2022-09-14T22:31:04.118Z,96751.13
2022-09-14T22:33:30.424Z,96753.00
2022-09-14T22:35:57.021Z,96759.41
2022-09-14T22:38:23.333Z,96757.81
2022-09-14T22:40:50.060Z,96755.44
2022-09-14T22:43:16.738Z,96754.94
2022-09-14T22:45:43.305Z,96759.47
2022-09-14T22:48:09.594Z,96762.44
2022-09-14T22:50:36.152Z,96769.41
2022-09-14T22:53:02.868Z,96776.91
2022-09-14T22:55:29.162Z,96775.31
2022-09-14T22:57:55.455Z,96776.41
2022-09-14T23:00:21.917Z,96780.44
2022-09-14T23:02:48.352Z,96778.84
2022-09-14T23:05:14.626Z,96781.53
2022-09-14T23:07:40.951Z,96779.94
2022-09-14T23:10:07.357Z,96782.63
2022-09-14T23:12:34.192Z,96779.44
2022-09-14T23:15:00.448Z,96783.16
2022-09-14T23:17:26.737Z,96794.97
2022-09-14T23:19:53.062Z,96790.97
2022-09-14T23:22:19.306Z,96793.63
2022-09-14T23:24:46.028Z,96802.75
2022-09-14T23:27:12.336Z,96794.22
2022-09-14T23:29:38.584Z,96797.97
2022-09-14T23:32:04.958Z,96803.34
2022-09-14T23:34:31.544Z,96794.50
2022-09-14T23:36:58.069Z,96798.22
2022-09-14T23:39:24.349Z,96804.69
2022-09-14T23:41:50.566Z,96799.63
2022-09-14T23:44:16.933Z,96794.56
2022-09-14T23:46:43.274Z,96797.22
2022-09-14T23:49:09.918Z,96794.84
2022-09-14T23:51:36.160Z,96796.72
2022-09-14T23:54:04.396Z,96791.66
2022-09-14T23:56:30.661Z,96791.13
2022-09-14T23:58:57.047Z,96790.31
